Latest Weather Observations for Snowtown

IDS60801

Issued at 8:31 pm CDT Saturday 31 January 2015 (issued every 30 minutes, with the page automatically refreshed every 10 minutes)

About weather observations | Map of weather stations | Latest weather observations for SA | Other Formats
Station Details ID: 021133 Name: RAYVILLE PARK Lat: -33.77 Lon: 138.22 Height: 109.1 m
Data from the previous 72 hours. | See also: Recent months at Snowtown
Date/Time
CDT
Temp
°C
App
Temp
°C
Dew
Point
Rel
Hum
%
Delta-T
°C
Wind Press
QNH
hPa
Press
MSL
hPa
Rain
since 9 am
mm
Dir
 
Spd
km/h
Gust
km/h
Spd
kts
Gust
kts
31/08:30pm 18.2 12.0 10.1 59 4.3 S 33 50 18 27 1014.8 1014.3 0.0
31/08:00pm 19.2 13.0 9.4 53 5.2 S 32 43 17 23 1014.4 1013.9 0.0
31/07:30pm 19.9 14.5 9.5 51 5.6 S 28 41 15 22 1014.4 1013.9 0.0
31/07:00pm 20.3 13.9 9.2 49 5.9 S 33 44 18 24 1014.0 1013.5 0.0
31/06:30pm 21.7 15.3 9.3 45 6.7 SSW 33 46 18 25 1013.9 1013.4 0.0
31/06:00pm 22.4 16.2 9.2 43 7.1 SSW 32 44 17 24 1013.7 1013.2 0.0
31/05:32pm 22.8 16.5 9.6 43 7.2 SW 33 54 18 29 1013.7 1013.2 0.0
31/05:30pm 23.3 17.1 10.0 43 7.3 SW 33 50 18 27 1013.7 1013.2 0.0
31/05:00pm 22.5 16.0 9.0 42 7.2 SW 33 43 18 23 1013.7 1013.2 0.0
31/04:30pm 24.1 17.9 9.3 39 8.1 SW 32 43 17 23 1013.8 1013.3 0.0
31/04:00pm 23.3 17.4 7.4 36 8.3 SW 28 35 15 19 1013.8 1013.3 0.0
31/03:30pm 24.3 18.0 7.4 34 8.9 SSW 30 41 16 22 1013.7 1013.2 0.0
31/03:00pm 25.1 18.9 6.3 30 9.8 SW 28 37 15 20 1013.7 1013.2 0.0
31/02:30pm 25.2 19.5 6.9 31 9.6 SSW 26 39 14 21 1013.7 1013.2 0.0
31/02:00pm 25.5 20.2 5.1 27 10.4 S 22 35 12 19 1013.7 1013.2 0.0
31/01:30pm 24.8 19.8 3.5 25 10.5 SSE 19 26 10 14 1013.9 1013.4 0.0
31/01:00pm 24.7 20.1 3.9 26 10.3 SSE 17 30 9 16 1014.3 1013.8 0.0
31/12:30pm 23.6 19.2 4.5 29 9.5 SE 17 28 9 15 1014.6 1014.1 0.0
31/12:00pm 23.2 18.8 4.7 30 9.2 ESE 17 28 9 15 1014.9 1014.4 0.0
31/11:30am 22.3 17.3 4.8 32 8.7 SSE 20 26 11 14 1015.3 1014.8 0.0
31/11:00am 21.6 17.1 5.9 36 7.9 SSE 19 30 10 16 1015.7 1015.2 0.0
31/10:30am 20.6 16.3 6.9 41 7.0 S 19 26 10 14 1015.7 1015.2 0.0
31/10:00am 19.2 14.9 7.0 45 6.2 SSE 19 26 10 14 1015.7 1015.2 0.0
31/09:30am 18.4 15.3 7.2 48 5.7 SE 13 20 7 11 1015.9 1015.4 0.0
31/09:00am 17.6 13.8 7.6 52 5.1 SSE 17 20 9 11 1015.8 1015.3 0.0
31/08:30am 15.9 11.6 7.9 59 4.0 SSE 20 26 11 14 1015.5 1015.0 0.0
31/08:00am 14.2 10.7 8.8 70 2.7 SSW 17 22 9 12 1015.6 1015.1 0.0
31/07:30am 12.7 10.5 9.2 79 1.8 SSW 11 15 6 8 1015.2 1014.7 0.0
31/07:00am 10.5 7.7 8.6 88 0.9 SW 13 15 7 8 1015.0 1014.5 0.0
31/06:30am 9.9 7.0 8.2 89 0.8 SW 13 15 7 8 1014.6 1014.1 0.0
31/06:00am 10.6 7.8 8.4 86 1.1 SW 13 15 7 8 1014.3 1013.8 0.0
31/05:30am 12.0 9.7 9.0 82 1.5 SSW 11 15 6 8 1014.1 1013.6 0.0
31/05:00am 11.0 8.2 8.6 85 1.2 SW 13 17 7 9 1014.0 1013.5 0.0
31/04:30am 11.6 8.5 8.8 83 1.4 SW 15 17 8 9 1013.9 1013.4 0.0
31/04:00am 11.5 8.4 8.9 84 1.3 SW 15 17 8 9 1013.7 1013.2 0.0
31/03:30am 12.3 9.3 9.1 81 1.6 SSW 15 17 8 9 1013.7 1013.2 0.0
31/03:00am 13.2 9.5 9.5 78 1.9 SSW 19 22 10 12 1013.5 1013.0 0.0
31/02:30am 13.4 9.7 9.5 77 2.0 SSW 19 24 10 13 1013.6 1013.1 0.0
31/02:00am 13.8 10.5 9.6 76 2.2 SSW 17 24 9 13 1013.7 1013.2 0.0
31/01:30am 13.9 11.5 9.9 77 2.1 SSW 13 19 7 10 1014.0 1013.5 0.0
31/01:00am 14.9 11.8 10.3 74 2.4 SSW 17 24 9 13 1014.1 1013.6 0.0
31/12:30am 15.6 12.0 10.4 71 2.8 S 20 26 11 14 1014.1 1013.6 0.0
31/12:00am 16.2 12.5 10.3 68 3.1 S 20 28 11 15 1014.1 1013.6 0.0
 
Date/Time
CDT
Temp
°C
App
Temp
°C
Dew
Point
Rel
Hum
%
Delta-T
°C
Wind Press
QNH
hPa
Press
MSL
hPa
Rain
since 9 am
mm
Dir
 
Spd
km/h
Gust
km/h
Spd
kts
Gust
kts
30/11:30pm 17.0 13.3 11.5 70 3.0 S 22 32 12 17 1014.1 1013.6 0.0
30/11:00pm 17.3 13.0 12.2 72 2.8 S 26 33 14 18 1014.0 1013.5 0.0
30/10:30pm 17.6 14.1 12.3 71 2.9 S 22 33 12 18 1014.1 1013.6 0.0
30/10:00pm 17.7 13.8 12.2 70 3.1 S 24 33 13 18 1014.1 1013.6 0.0
30/09:30pm 18.1 14.8 12.8 71 3.0 S 22 32 12 17 1013.9 1013.4 0.0
30/09:00pm 18.5 14.0 12.5 68 3.4 S 28 41 15 22 1013.5 1013.0 0.0
30/08:30pm 19.1 13.8 12.6 66 3.7 SSW 32 43 17 23 1013.3 1012.8 0.0
30/08:00pm 20.4 15.9 12.6 61 4.4 SSW 28 41 15 22 1013.1 1012.6 0.0
30/07:30pm 21.8 16.6 11.5 52 5.8 SSW 30 44 16 24 1012.7 1012.3 0.0
30/07:00pm 22.8 16.5 10.9 47 6.6 SSW 35 46 19 25 1012.3 1011.9 0.0
30/06:30pm 24.0 17.2 9.2 39 8.0 SSW 35 46 19 25 1012.1 1011.7 0.0
30/06:00pm 25.0 18.5 8.9 36 8.8 SSW 33 46 18 25 1012.0 1011.6 0.0
30/05:30pm 26.2 19.1 6.3 28 10.4 SSW 33 48 18 26 1011.8 1011.4 0.0
30/05:00pm 26.6 19.2 6.6 28 10.5 S 35 44 19 24 1011.8 1011.4 0.0
30/04:30pm 27.6 20.0 5.8 25 11.4 S 35 46 19 25 1012.0 1011.6 0.0
30/04:00pm 28.8 22.2 6.2 24 12.0 S 30 41 16 22 1012.1 1011.7 0.0
30/03:30pm 30.1 24.0 6.7 23 12.6 S 28 39 15 21 1012.2 1011.8 0.0
30/03:00pm 30.2 23.8 0.7 15 14.3 S 24 35 13 19 1012.6 1012.2 0.0
30/02:30pm 29.3 24.1 2.5 18 13.4 SSE 19 32 10 17 1013.2 1012.7 0.0
30/02:00pm 29.0 23.6 2.3 18 13.2 SSE 20 41 11 22 1013.5 1013.0 0.0
30/01:30pm 29.3 23.9 2.5 18 13.4 SE 20 30 11 16 1013.8 1013.3 0.0
30/01:00pm 29.0 24.3 3.1 19 13.0 SSE 17 37 9 20 1014.2 1013.7 0.0
30/12:30pm 29.2 24.1 3.9 20 12.9 SE 20 32 11 17 1014.4 1013.9 0.0
30/12:00pm 27.2 23.0 3.7 22 11.8 SE 15 26 8 14 1014.8 1014.3 0.0
30/11:30am 26.8 21.7 3.3 22 11.7 SE 19 24 10 13 1015.0 1014.5 0.0
30/11:00am 26.1 21.7 4.6 25 10.9 SE 17 28 9 15 1015.3 1014.8 0.0
30/10:30am 24.9 21.2 4.6 27 10.2 ESE 13 19 7 10 1015.4 1014.9 0.0
30/10:00am 24.5 20.4 4.3 27 10.1 ESE 15 20 8 11 1015.7 1015.2 0.0
30/09:30am 22.1 19.8 5.5 34 8.3 ESE 7 13 4 7 1015.9 1015.4 0.0
30/09:00am 20.5 17.9 6.1 39 7.2 ESE 9 17 5 9 1016.1 1015.6 0.0
30/08:30am 19.5 18.3 6.6 43 6.5 S 2 7 1 4 1016.0 1015.5 0.0
30/08:00am 17.6 16.3 9.2 58 4.4 SW 6 7 3 4 1015.7 1015.2 0.0
30/07:30am 15.2 13.5 11.2 77 2.1 WSW 11 13 6 7 1015.4 1014.9 0.0
30/07:00am 11.9 10.3 10.1 89 0.9 WSW 9 13 5 7 1015.1 1014.6 0.0
30/06:30am 11.8 10.2 10.2 90 0.8 SSW 9 13 5 7 1014.8 1014.3 0.0
30/06:00am 11.6 9.3 10.3 92 0.7 SW 13 15 7 8 1014.7 1014.2 0.0
30/05:30am 11.5 9.7 9.6 88 1.0 SSW 9 11 5 6 1014.5 1014.0 0.0
30/05:00am 12.1 11.3 9.7 85 1.2 S 4 7 2 4 1014.4 1013.9 0.0
30/04:30am 13.0 11.4 10.2 83 1.5 SSW 9 11 5 6 1014.3 1013.8 0.0
30/04:00am 14.3 11.7 10.7 79 1.9 SW 15 17 8 9 1014.1 1013.6 0.0
30/03:30am 15.7 13.1 10.7 72 2.7 SSW 15 20 8 11 1014.2 1013.7 0.0
30/03:00am 16.3 13.3 10.6 69 3.0 SSW 17 22 9 12 1014.3 1013.8 0.0
30/02:30am 15.9 12.2 10.2 69 3.0 SSW 20 24 11 13 1014.2 1013.7 0.0
30/02:00am 15.3 11.8 10.1 71 2.7 SW 19 22 10 12 1014.5 1014.0 0.0
30/01:30am 15.2 11.8 9.3 68 3.0 SW 17 20 9 11 1014.6 1014.1 0.0
30/01:00am 14.7 11.3 9.1 69 2.9 SW 17 19 9 10 1014.7 1014.2 0.0
30/12:30am 15.5 12.5 9.4 67 3.2 SW 15 17 8 9 1014.8 1014.3 0.0
30/12:00am 17.3 14.4 11.1 67 3.4 SW 17 20 9 11 1014.8 1014.3 0.0
 
Date/Time
CDT
Temp
°C
App
Temp
°C
Dew
Point
Rel
Hum
%
Delta-T
°C
Wind Press
QNH
hPa
Press
MSL
hPa
Rain
since 9 am
mm
Dir
 
Spd
km/h
Gust
km/h
Spd
kts
Gust
kts
29/11:30pm 18.1 16.6 13.0 72 2.9 SSW 13 19 7 10 1014.9 1014.4 0.0
29/11:00pm 18.3 17.1 14.0 76 2.5 S 13 19 7 10 1014.9 1014.4 0.0
29/10:30pm 19.2 17.5 14.7 75 2.6 SSW 17 24 9 13 1014.8 1014.3 0.0
29/10:00pm 19.5 16.9 15.0 75 2.6 SSW 22 30 12 16 1014.6 1014.1 0.0
29/09:30pm 19.8 17.1 14.6 72 3.0 SSW 22 30 12 16 1014.4 1013.9 0.0
29/09:00pm 20.4 17.6 14.3 68 3.6 SSW 22 30 12 16 1014.3 1013.8 0.0
29/08:30pm 21.5 17.4 13.7 61 4.5 SSW 28 37 15 20 1014.0 1013.5 0.0
29/08:00pm 23.2 18.7 12.5 51 6.1 S 28 39 15 21 1013.7 1013.2 0.0
29/07:30pm 24.6 18.4 7.7 34 9.0 S 30 41 16 22 1013.4 1012.9 0.0
29/07:00pm 25.7 19.3 8.7 34 9.2 S 32 41 17 22 1013.2 1012.7 0.0
29/06:30pm 27.0 20.4 8.4 31 10.1 SSW 33 46 18 25 1012.9 1012.4 0.0
29/06:00pm 28.0 21.0 6.2 25 11.5 S 32 48 17 26 1012.7 1012.3 0.0
29/05:54pm 28.4 21.5 6.5 25 11.6 S 32 50 17 27 1012.7 1012.3 0.0
29/05:30pm 28.6 21.1 6.1 24 11.9 S 35 52 19 28 1012.9 1012.4 0.0
29/05:21pm 29.4 22.7 5.5 22 12.6 S 30 52 16 28 1012.6 1012.2 0.0
29/05:00pm 30.0 22.6 3.9 19 13.4 SSW 32 44 17 24 1012.7 1012.3 0.0
29/04:32pm 29.7 22.6 5.7 22 12.7 S 32 50 17 27 1013.0 1012.5 0.0
29/04:30pm 30.0 22.8 6.0 22 12.8 S 33 50 18 27 1013.0 1012.5 0.0
29/04:01pm 30.1 23.0 5.4 21 13.0 S 32 54 17 29 1013.2 1012.7 0.0
29/04:00pm 30.0 22.9 5.3 21 13.0 S 32 44 17 24 1013.3 1012.8 0.0
29/03:45pm 31.0 23.8 3.1 17 14.2 S 30 50 16 27 1013.4 1012.9 0.0
29/03:30pm 31.4 25.0 0.7 14 15.0 S 24 39 13 21 1013.7 1013.2 0.0
29/03:00pm 30.2 24.3 1.6 16 14.1 SSE 22 37 12 20 1013.9 1013.4 0.0
29/02:30pm 30.0 23.8 6.0 22 12.8 SSW 28 37 15 20 1014.2 1013.7 0.0
29/02:00pm 30.2 23.8 3.3 18 13.7 SSE 26 39 14 21 1014.6 1014.1 0.0
29/01:30pm 30.1 24.7 1.5 16 14.1 SSE 19 32 10 17 1014.8 1014.3 0.0
29/01:00pm 28.8 24.2 3.6 20 12.8 SSE 17 28 9 15 1015.3 1014.8 0.0
29/12:30pm 28.2 23.8 4.5 22 12.1 E 17 28 9 15 1015.6 1015.1 0.0
29/12:00pm 28.6 24.2 4.8 22 12.3 SSE 17 26 9 14 1015.9 1015.4 0.0
29/11:30am 26.6 22.9 6.1 27 10.7 S 15 26 8 14 1016.2 1015.7 0.0
29/11:00am 25.8 22.0 5.9 28 10.3 SE 15 22 8 12 1016.5 1016.0 0.0
29/10:30am 24.3 22.7 8.7 37 8.4 S 7 15 4 8 1016.7 1016.2 0.0
29/10:00am 23.1 20.3 8.4 39 7.8 SSE 13 19 7 10 1016.7 1016.2 0.0
29/09:30am 21.4 19.5 9.0 45 6.6 SSE 9 15 5 8 1016.8 1016.3 0.0
29/09:00am 20.3 18.8 9.2 49 5.9 SE 7 13 4 7 1016.9 1016.4 0.0
29/08:30am 18.3 17.0 11.1 63 3.9 SW 9 11 5 6 1016.9 1016.4 0.0
29/08:00am 16.4 15.1 12.4 77 2.2 SW 11 13 6 7 1016.6 1016.1 0.0
29/07:30am 13.5 13.1 13.0 97 0.3 SW 7 9 4 5 1016.4 1015.9 0.0
29/07:00am 11.3 10.2 10.8 97 0.3 SW 7 11 4 6 1016.1 1015.6 0.0
29/06:30am 11.6 10.3 11.1 97 0.3 SW 9 11 5 6 1015.8 1015.3 0.0
29/06:00am 12.0 10.0 11.5 97 0.3 SW 13 13 7 7 1015.6 1015.1 0.0
29/05:30am 11.9 10.6 11.3 96 0.3 SW 9 11 5 6 1015.4 1014.9 0.0
29/05:00am 12.3 10.7 11.7 96 0.3 SW 11 13 6 7 1015.1 1014.6 0.0
29/04:30am 12.4 11.2 11.5 94 0.5 SW 9 13 5 7 1015.0 1014.5 0.0
29/04:00am 13.3 11.6 12.4 94 0.5 SW 13 17 7 9 1015.0 1014.5 0.0
29/03:30am 13.6 11.2 12.5 93 0.6 SW 17 20 9 11 1015.2 1014.7 0.0
29/03:00am 14.5 12.6 13.0 91 0.8 S 15 19 8 10 1015.1 1014.6 0.0
29/02:30am 15.1 12.8 13.1 88 1.1 SSW 17 20 9 11 1015.0 1014.5 0.0
29/02:00am 15.1 12.5 13.3 89 1.0 SSW 19 22 10 12 1015.1 1014.6 0.0
29/01:30am 14.3 12.2 12.3 88 1.1 SW 15 20 8 11 1015.3 1014.8 0.0
29/01:00am 14.6 12.6 12.6 88 1.1 SW 15 19 8 10 1015.6 1015.1 0.0
29/12:30am 15.0 13.6 12.3 84 1.5 SSW 11 15 6 8 1015.7 1015.2 0.0
29/12:00am 16.0 14.0 12.6 80 1.9 SSW 15 24 8 13 1015.8 1015.3 0.0
 
Date/Time
CDT
Temp
°C
App
Temp
°C
Dew
Point
Rel
Hum
%
Delta-T
°C
Wind Press
QNH
hPa
Press
MSL
hPa
Rain
since 9 am
mm
Dir
 
Spd
km/h
Gust
km/h
Spd
kts
Gust
kts
28/11:30pm 16.5 14.6 13.0 80 2.0 SSW 15 22 8 12 1015.8 1015.3 0.0
28/11:00pm 16.7 14.5 13.2 80 2.0 SSW 17 22 9 12 1015.9 1015.4 0.0
28/10:30pm 17.4 14.6 13.1 76 2.4 SSW 20 28 11 15 1015.8 1015.3 0.0
28/10:00pm 18.0 14.5 13.3 74 2.7 SSW 24 35 13 19 1015.6 1015.1 0.0
28/09:30pm 18.3 14.4 13.2 72 2.9 S 26 37 14 20 1015.4 1014.9 0.0
28/09:00pm 18.8 14.0 13.0 69 3.3 S 30 39 16 21 1015.1 1014.6 0.0

Other Formats:

Comma delimited format used in spreadsheet applications
http://www.bom.gov.au/fwo/IDS60801/IDS60801.95670.axf

JavaScript Object Notation format (JSON) in row-major order
http://www.bom.gov.au/fwo/IDS60801/IDS60801.95670.json